createdAt,value
2023-02-09T00:01:30.255Z,55.54
2023-02-09T00:04:00.670Z,55.77
2023-02-09T00:06:30.020Z,55.92
2023-02-09T00:08:58.477Z,57.31
2023-02-09T00:11:47.565Z,57.47
2023-02-09T00:14:17.904Z,56.63
2023-02-09T00:16:46.275Z,56.69
2023-02-09T00:19:14.443Z,56.35
2023-02-09T00:21:41.997Z,56.83
2023-02-09T00:24:12.678Z,56.79
2023-02-09T00:26:40.806Z,56.67
2023-02-09T00:29:09.562Z,56.03
2023-02-09T00:31:37.008Z,56.28
2023-02-09T00:34:05.497Z,56.14
2023-02-09T00:36:33.500Z,56.28
2023-02-09T00:39:01.474Z,55.81
2023-02-09T00:41:47.702Z,55.49
2023-02-09T00:44:15.912Z,55.88
2023-02-09T00:46:43.362Z,56.56
2023-02-09T00:49:10.907Z,56.11
2023-02-09T00:51:38.243Z,55.72
2023-02-09T00:54:05.646Z,56.33
2023-02-09T00:56:33.050Z,56.78
2023-02-09T00:59:00.464Z,56.71
2023-02-09T01:01:27.831Z,56.38
2023-02-09T01:03:55.585Z,56.43
2023-02-09T01:06:23.020Z,56.48
2023-02-09T01:08:50.915Z,56.91
2023-02-09T01:11:18.740Z,56.68
2023-02-09T01:13:46.448Z,55.79
2023-02-09T01:16:16.513Z,54.99
2023-02-09T01:18:44.617Z,54.58
2023-02-09T01:21:17.596Z,55.18
2023-02-09T01:23:46.120Z,55.46
2023-02-09T01:26:14.941Z,55.95
2023-02-09T01:28:42.975Z,55.79
2023-02-09T01:31:31.729Z,56.11
2023-02-09T01:34:00.979Z,55.64
2023-02-09T01:36:30.325Z,55.54
2023-02-09T01:38:59.872Z,55.38
2023-02-09T01:41:28.030Z,54.84
2023-02-09T01:44:05.859Z,55.40
2023-02-09T01:46:35.163Z,55.57
2023-02-09T01:49:12.407Z,55.91
2023-02-09T01:51:58.263Z,55.78
2023-02-09T01:54:29.898Z,55.43
2023-02-09T01:57:03.441Z,55.95
2023-02-09T01:59:30.847Z,55.66
2023-02-09T02:01:58.245Z,55.85
2023-02-09T02:04:25.585Z,56.11
2023-02-09T02:06:55.238Z,56.04
2023-02-09T02:09:22.740Z,56.23
2023-02-09T02:11:50.066Z,56.22
2023-02-09T02:14:37.554Z,55.96
2023-02-09T02:17:38.840Z,56.04
2023-02-09T02:20:28.016Z,56.34
2023-02-09T02:23:22.510Z,56.69
2023-02-09T02:26:22.411Z,56.68
2023-02-09T02:29:08.633Z,56.87
2023-02-09T02:32:06.512Z,57.34
2023-02-09T02:34:46.063Z,57.07
2023-02-09T02:37:19.268Z,57.08
2023-02-09T02:39:52.728Z,57.97
2023-02-09T02:42:45.612Z,57.10
2023-02-09T02:45:34.211Z,57.55
2023-02-09T02:48:36.900Z,57.58
2023-02-09T02:51:16.101Z,57.07
2023-02-09T02:53:48.893Z,56.67
2023-02-09T02:56:19.781Z,56.35
2023-02-09T02:58:49.237Z,55.96
2023-02-09T03:01:21.269Z,56.53
2023-02-09T03:03:48.955Z,56.46
2023-02-09T03:06:17.048Z,56.91
2023-02-09T03:08:54.128Z,57.13
2023-02-09T03:11:23.639Z,57.22
2023-02-09T03:14:00.040Z,57.20
2023-02-09T03:16:44.027Z,57.80
2023-02-09T03:19:23.403Z,58.24
2023-02-09T03:22:00.852Z,58.98
2023-02-09T03:24:44.647Z,58.73
2023-02-09T03:27:15.863Z,58.05
2023-02-09T03:29:46.065Z,58.32
2023-02-09T03:32:14.521Z,58.41
2023-02-09T03:34:42.280Z,59.33
2023-02-09T03:37:09.670Z,60.70
2023-02-09T03:39:37.447Z,61.20
2023-02-09T03:42:04.976Z,61.57
2023-02-09T03:44:32.199Z,60.96
2023-02-09T03:47:01.487Z,60.21
2023-02-09T03:49:34.059Z,60.12
2023-02-09T03:52:02.339Z,60.53
2023-02-09T03:54:30.996Z,60.67
2023-02-09T03:57:00.058Z,59.83
2023-02-09T03:59:28.553Z,59.17
2023-02-09T04:01:58.130Z,59.75
2023-02-09T04:04:26.512Z,59.84
2023-02-09T04:06:53.968Z,59.31
2023-02-09T04:09:21.636Z,59.95
2023-02-09T04:11:49.507Z,60.60
2023-02-09T04:14:17.248Z,60.68
2023-02-09T04:16:44.819Z,61.31
2023-02-09T04:19:12.410Z,61.93
2023-02-09T04:21:39.968Z,61.16
2023-02-09T04:24:07.632Z,59.79
2023-02-09T04:26:35.868Z,59.57
2023-02-09T04:29:03.971Z,58.69
2023-02-09T04:31:31.730Z,59.03
2023-02-09T04:33:59.108Z,59.07
2023-02-09T04:36:26.411Z,58.61
2023-02-09T04:38:53.792Z,59.29
2023-02-09T04:41:21.141Z,59.60
2023-02-09T04:43:48.674Z,59.79
2023-02-09T04:46:16.992Z,59.33
2023-02-09T04:48:45.142Z,59.44
2023-02-09T04:51:13.136Z,59.65
2023-02-09T04:53:40.495Z,59.59
2023-02-09T04:56:07.985Z,59.87
2023-02-09T04:58:53.768Z,61.11
2023-02-09T05:01:23.555Z,61.49
2023-02-09T05:03:51.100Z,61.03
2023-02-09T05:06:19.069Z,61.23
2023-02-09T05:08:46.354Z,62.08
2023-02-09T05:11:13.637Z,61.63
2023-02-09T05:13:41.446Z,60.31
2023-02-09T05:16:11.648Z,60.32
2023-02-09T05:18:39.002Z,60.63
2023-02-09T05:21:06.382Z,61.15
2023-02-09T05:23:33.628Z,61.00
2023-02-09T05:26:01.228Z,61.17
2023-02-09T05:28:28.634Z,60.90
2023-02-09T05:30:56.023Z,60.49
2023-02-09T05:33:24.644Z,59.96
2023-02-09T05:35:52.668Z,60.02
2023-02-09T05:38:20.146Z,61.24
2023-02-09T05:40:49.635Z,61.62
2023-02-09T05:43:24.442Z,60.94
2023-02-09T05:45:52.045Z,59.88
2023-02-09T05:48:19.398Z,60.65
2023-02-09T05:50:47.984Z,60.34
2023-02-09T05:53:16.490Z,61.70
2023-02-09T05:55:44.022Z,61.51
2023-02-09T05:58:11.345Z,62.21
2023-02-09T06:00:38.785Z,62.88
2023-02-09T06:03:06.200Z,62.01
2023-02-09T06:05:33.622Z,61.72
2023-02-09T06:08:01.008Z,61.76
2023-02-09T06:10:28.383Z,61.64
2023-02-09T06:12:55.726Z,62.60
2023-02-09T06:15:23.181Z,62.65
2023-02-09T06:17:50.516Z,64.21
2023-02-09T06:20:18.013Z,63.96
2023-02-09T06:22:45.279Z,63.45
2023-02-09T06:25:12.842Z,62.45
2023-02-09T06:27:40.314Z,62.40
2023-02-09T06:30:08.177Z,63.60
2023-02-09T06:32:35.677Z,64.41
2023-02-09T06:35:02.973Z,64.63
2023-02-09T06:37:34.155Z,65.27
2023-02-09T06:40:01.519Z,64.75
2023-02-09T06:42:44.008Z,64.57
2023-02-09T06:45:14.309Z,65.07
2023-02-09T06:47:42.761Z,64.07
2023-02-09T06:50:11.507Z,62.81
2023-02-09T06:52:39.005Z,62.39
2023-02-09T06:55:07.158Z,63.27
2023-02-09T06:57:35.134Z,63.39
2023-02-09T07:00:07.392Z,62.57
2023-02-09T07:02:35.557Z,62.80
2023-02-09T07:05:02.823Z,62.31
2023-02-09T07:07:30.191Z,62.12
2023-02-09T07:09:57.475Z,61.87
2023-02-09T07:12:25.261Z,62.77
2023-02-09T07:14:52.895Z,62.18
2023-02-09T07:17:20.218Z,62.15
2023-02-09T07:19:47.903Z,62.09
2023-02-09T07:22:15.425Z,62.54
2023-02-09T07:24:42.832Z,61.66
2023-02-09T07:27:10.090Z,61.69
2023-02-09T07:29:37.366Z,61.19
2023-02-09T07:32:07.128Z,62.01
2023-02-09T07:34:35.439Z,62.08
2023-02-09T07:37:03.814Z,60.84
2023-02-09T07:39:31.678Z,60.81
2023-02-09T07:41:59.171Z,60.42
2023-02-09T07:44:40.401Z,60.19
2023-02-09T07:47:08.005Z,60.59
2023-02-09T07:49:38.599Z,60.25
2023-02-09T07:52:06.086Z,60.34
2023-02-09T07:54:33.535Z,60.69
2023-02-09T07:57:00.882Z,60.43
2023-02-09T07:59:28.215Z,60.03
2023-02-09T08:01:55.687Z,59.73
2023-02-09T08:04:24.048Z,59.01
2023-02-09T08:06:53.210Z,58.95
2023-02-09T08:09:20.549Z,58.68
2023-02-09T08:12:02.686Z,59.07
2023-02-09T08:14:39.817Z,58.55
2023-02-09T08:17:23.232Z,59.20
2023-02-09T08:19:54.678Z,58.95
2023-02-09T08:22:24.369Z,59.47
2023-02-09T08:24:51.932Z,59.28
2023-02-09T08:27:19.235Z,58.38
2023-02-09T08:29:48.864Z,57.96
2023-02-09T08:32:16.468Z,58.10
2023-02-09T08:34:43.814Z,57.85
2023-02-09T08:37:20.550Z,57.43
2023-02-09T08:39:48.257Z,57.38
2023-02-09T08:42:15.545Z,57.81
2023-02-09T08:44:42.780Z,57.15
2023-02-09T08:47:13.517Z,57.09
2023-02-09T08:49:45.221Z,56.46
2023-02-09T08:52:15.390Z,56.48
2023-02-09T08:54:42.725Z,56.71
2023-02-09T08:57:10.264Z,56.40
2023-02-09T08:59:37.891Z,56.97
2023-02-09T09:02:05.207Z,56.95
2023-02-09T09:04:32.730Z,56.84
2023-02-09T09:07:00.730Z,55.83
2023-02-09T09:09:28.980Z,55.81
2023-02-09T09:11:57.204Z,55.29
2023-02-09T09:14:26.641Z,54.85
2023-02-09T09:16:57.380Z,54.86
2023-02-09T09:19:25.359Z,54.59
2023-02-09T09:21:52.873Z,55.41
2023-02-09T09:24:21.185Z,55.11
2023-02-09T09:26:48.741Z,54.55
2023-02-09T09:29:18.912Z,54.10
2023-02-09T09:31:46.435Z,54.32
2023-02-09T09:34:13.812Z,54.11
2023-02-09T09:36:41.109Z,53.62
2023-02-09T09:39:14.390Z,52.88
2023-02-09T09:41:44.701Z,52.78
2023-02-09T09:44:47.110Z,52.84
2023-02-09T09:47:24.451Z,52.36
2023-02-09T09:49:52.104Z,52.63
2023-02-09T09:52:29.319Z,52.26
2023-02-09T09:54:58.396Z,51.96
2023-02-09T09:57:27.977Z,51.83
2023-02-09T10:00:01.469Z,51.52
2023-02-09T10:02:33.674Z,51.46
2023-02-09T10:05:21.385Z,51.52
2023-02-09T10:08:06.083Z,51.16
2023-02-09T10:10:57.027Z,50.98
2023-02-09T10:13:26.508Z,51.33
2023-02-09T10:15:57.385Z,50.97
2023-02-09T10:18:27.898Z,50.97
2023-02-09T10:20:58.925Z,50.85
2023-02-09T10:23:29.125Z,50.23
2023-02-09T10:26:03.133Z,49.45
2023-02-09T10:28:33.310Z,50.23
2023-02-09T10:31:02.791Z,49.85
2023-02-09T10:33:38.819Z,49.96
2023-02-09T10:36:08.744Z,50.46
2023-02-09T10:38:35.934Z,49.71
2023-02-09T10:41:09.106Z,49.16
2023-02-09T10:43:37.050Z,49.43
2023-02-09T10:46:20.237Z,48.69
2023-02-09T10:48:48.034Z,49.12
2023-02-09T10:51:28.896Z,48.97
2023-02-09T10:54:00.275Z,48.78
2023-02-09T10:56:35.970Z,49.22
2023-02-09T10:59:15.544Z,49.33
2023-02-09T11:01:44.745Z,49.40
2023-02-09T11:04:21.881Z,49.18
2023-02-09T11:06:56.694Z,49.02
2023-02-09T11:09:29.662Z,49.03
2023-02-09T11:11:57.205Z,48.76
2023-02-09T11:14:31.542Z,48.83
2023-02-09T11:17:17.695Z,48.17
2023-02-09T11:20:14.393Z,48.09
2023-02-09T11:22:47.733Z,47.53
2023-02-09T11:25:25.422Z,47.35
2023-02-09T11:27:58.691Z,48.16
2023-02-09T11:31:03.546Z,47.30
2023-02-09T11:33:40.470Z,47.17
2023-02-09T11:36:17.171Z,47.62
2023-02-09T11:38:51.538Z,47.06
2023-02-09T11:41:48.945Z,46.83
2023-02-09T11:44:42.699Z,47.14
2023-02-09T11:47:15.040Z,47.28
2023-02-09T11:49:48.968Z,47.08
2023-02-09T11:52:20.844Z,46.28
2023-02-09T11:54:52.164Z,45.68
2023-02-09T11:57:33.126Z,45.41
2023-02-09T12:00:05.175Z,44.74
2023-02-09T12:02:54.150Z,45.15
2023-02-09T12:05:22.832Z,44.91
2023-02-09T12:08:09.314Z,44.81
2023-02-09T12:11:19.222Z,43.94
2023-02-09T12:13:59.457Z,43.61
2023-02-09T12:16:33.206Z,43.75
2023-02-09T12:19:01.855Z,43.50
2023-02-09T12:21:34.405Z,42.60
2023-02-09T12:24:02.055Z,42.23
2023-02-09T12:26:44.168Z,42.54
2023-02-09T12:29:30.060Z,42.47
2023-02-09T12:32:06.903Z,42.17
2023-02-09T12:34:49.720Z,41.96
2023-02-09T12:37:27.455Z,42.17
2023-02-09T12:40:07.125Z,42.01
2023-02-09T12:42:53.654Z,42.07
2023-02-09T12:45:36.304Z,42.72
2023-02-09T12:48:09.727Z,43.15
2023-02-09T12:50:43.625Z,42.54
2023-02-09T12:53:31.970Z,42.33
2023-02-09T12:56:11.446Z,42.37
2023-02-09T12:58:44.722Z,41.92
2023-02-09T13:01:14.322Z,42.05
2023-02-09T13:03:49.292Z,41.75
2023-02-09T13:06:37.303Z,41.16
2023-02-09T13:09:08.727Z,41.01
2023-02-09T13:11:51.035Z,41.88
2023-02-09T13:14:19.477Z,41.67
2023-02-09T13:17:02.038Z,41.80
2023-02-09T13:19:47.678Z,41.11
2023-02-09T13:22:34.524Z,41.07
2023-02-09T13:25:16.918Z,40.67
2023-02-09T13:27:51.020Z,40.33
2023-02-09T13:30:31.578Z,40.09
2023-02-09T13:33:24.055Z,39.91
2023-02-09T13:35:57.826Z,39.30
2023-02-09T13:38:30.149Z,39.55
2023-02-09T13:41:00.509Z,39.38
2023-02-09T13:43:33.053Z,39.20
2023-02-09T13:46:01.951Z,38.59
2023-02-09T13:48:33.229Z,53.97
2023-02-09T13:51:03.647Z,36.03
2023-02-09T13:53:31.746Z,36.73
2023-02-09T13:56:00.531Z,37.02
2023-02-09T13:58:31.283Z,36.96
2023-02-09T14:01:11.577Z,37.55
2023-02-09T14:03:58.109Z,37.93
2023-02-09T14:06:36.131Z,37.14
2023-02-09T14:09:04.780Z,37.63
2023-02-09T14:11:42.849Z,37.25
2023-02-09T14:14:11.392Z,36.78
2023-02-09T14:16:52.565Z,36.83
2023-02-09T14:19:31.874Z,36.78
2023-02-09T14:21:59.236Z,36.87
2023-02-09T14:24:28.615Z,36.00
2023-02-09T14:27:15.118Z,35.88
2023-02-09T14:29:46.232Z,35.89
2023-02-09T14:32:32.897Z,35.50
2023-02-09T14:35:41.834Z,35.53
2023-02-09T14:38:43.992Z,35.50
2023-02-09T14:41:31.611Z,35.36
2023-02-09T14:44:03.609Z,36.03
2023-02-09T14:46:47.505Z,35.72
2023-02-09T14:49:14.886Z,36.32
2023-02-09T14:51:42.983Z,36.40
2023-02-09T14:54:24.170Z,37.10
2023-02-09T14:56:52.999Z,36.64
2023-02-09T14:59:21.882Z,35.36
2023-02-09T15:01:52.476Z,36.02
2023-02-09T15:04:20.311Z,36.63
2023-02-09T15:06:58.962Z,35.89
2023-02-09T15:09:31.686Z,36.74
2023-02-09T15:12:05.204Z,37.01
2023-02-09T15:14:41.589Z,37.73
2023-02-09T15:17:15.597Z,37.72
2023-02-09T15:19:43.614Z,38.08
2023-02-09T15:22:14.940Z,37.75
2023-02-09T15:24:43.593Z,37.94
2023-02-09T15:27:17.602Z,38.22
2023-02-09T15:29:45.156Z,39.06
2023-02-09T15:32:17.288Z,39.63
2023-02-09T15:34:44.864Z,40.14
2023-02-09T15:37:22.138Z,39.67
2023-02-09T15:39:51.191Z,39.65
2023-02-09T15:42:38.431Z,40.08
2023-02-09T15:45:40.349Z,40.16
2023-02-09T15:48:08.587Z,39.50
2023-02-09T15:50:39.170Z,39.31
2023-02-09T15:53:12.610Z,39.60
2023-02-09T15:55:40.258Z,40.04
2023-02-09T15:58:35.375Z,40.08
2023-02-09T16:01:04.214Z,40.58
2023-02-09T16:03:31.855Z,41.51
2023-02-09T16:06:04.052Z,41.90
2023-02-09T16:08:33.304Z,42.58
2023-02-09T16:11:02.167Z,43.03
2023-02-09T16:13:32.838Z,43.86
2023-02-09T16:16:14.794Z,44.16
2023-02-09T16:18:44.416Z,44.32
2023-02-09T16:21:33.738Z,44.15
2023-02-09T16:24:02.979Z,44.85
2023-02-09T16:26:31.099Z,44.73
2023-02-09T16:28:58.666Z,45.34
2023-02-09T16:31:26.383Z,45.30
2023-02-09T16:33:53.766Z,45.17
2023-02-09T16:36:23.855Z,47.22
2023-02-09T16:38:51.115Z,49.49
2023-02-09T16:41:38.020Z,50.55
2023-02-09T16:44:17.027Z,51.39
2023-02-09T16:46:47.173Z,50.64
2023-02-09T16:49:34.617Z,52.30
2023-02-09T16:52:06.535Z,52.32
2023-02-09T16:54:41.155Z,52.72
2023-02-09T16:57:13.294Z,52.36
2023-02-09T16:59:40.820Z,52.75
2023-02-09T17:02:34.554Z,52.60
2023-02-09T17:05:05.773Z,53.55
2023-02-09T17:07:45.456Z,54.45
2023-02-09T17:10:22.992Z,53.98
2023-02-09T17:12:52.611Z,54.20
2023-02-09T17:15:30.183Z,55.15
2023-02-09T17:18:04.900Z,54.82
2023-02-09T17:20:40.568Z,54.64
2023-02-09T17:23:11.648Z,54.82
2023-02-09T17:25:39.046Z,54.44
2023-02-09T17:28:06.791Z,54.36
2023-02-09T17:30:35.286Z,53.32
2023-02-09T17:33:05.104Z,53.64
2023-02-09T17:36:03.564Z,53.31
2023-02-09T17:38:26.359Z,52.54
2023-02-09T17:40:55.233Z,52.38
2023-02-09T17:43:24.034Z,51.53
2023-02-09T17:45:52.210Z,52.14
2023-02-09T17:48:20.926Z,51.62
2023-02-09T17:50:51.832Z,51.27
2023-02-09T17:53:26.728Z,51.07
2023-02-09T17:55:56.580Z,51.45
2023-02-09T17:58:24.093Z,51.05
2023-02-09T18:00:53.185Z,49.25
2023-02-09T18:03:22.179Z,49.37
2023-02-09T18:06:01.550Z,48.51
2023-02-09T18:08:29.203Z,49.28
2023-02-09T18:10:58.652Z,49.14
2023-02-09T18:13:27.135Z,48.87
2023-02-09T18:15:54.759Z,49.60
2023-02-09T18:18:24.193Z,49.43
2023-02-09T18:20:52.338Z,49.80
2023-02-09T18:23:19.851Z,50.37
2023-02-09T18:25:49.665Z,50.66
2023-02-09T18:28:17.176Z,50.31
2023-02-09T18:30:44.922Z,49.91
2023-02-09T18:33:12.661Z,49.64
2023-02-09T18:35:41.736Z,50.01
2023-02-09T18:38:10.735Z,49.74
2023-02-09T18:40:39.152Z,49.74
2023-02-09T18:43:07.434Z,50.83
2023-02-09T18:45:35.678Z,51.60
2023-02-09T18:48:03.109Z,51.52
2023-02-09T18:50:31.941Z,51.20
2023-02-09T18:53:03.835Z,51.31
2023-02-09T18:55:34.049Z,51.25
2023-02-09T18:58:04.330Z,51.00
2023-02-09T19:00:32.486Z,50.99
2023-02-09T19:02:59.984Z,51.58
2023-02-09T19:05:30.075Z,51.27
2023-02-09T19:07:59.640Z,51.24
2023-02-09T19:10:27.627Z,51.14
2023-02-09T19:12:55.513Z,51.59
2023-02-09T19:15:25.696Z,52.40
2023-02-09T19:17:56.457Z,53.54
2023-02-09T19:20:26.644Z,52.82
2023-02-09T19:22:54.786Z,52.88
2023-02-09T19:25:25.314Z,52.90
2023-02-09T19:27:53.310Z,52.83
2023-02-09T19:30:25.090Z,52.62
2023-02-09T19:32:54.094Z,53.28
2023-02-09T19:35:22.878Z,53.60
2023-02-09T19:37:54.542Z,53.63
2023-02-09T19:40:33.693Z,53.70
2023-02-09T19:43:01.252Z,53.51
2023-02-09T19:45:36.456Z,54.22
2023-02-09T19:48:05.477Z,54.01
2023-02-09T19:50:36.759Z,54.06
2023-02-09T19:53:05.725Z,53.82
2023-02-09T19:55:33.527Z,53.48
2023-02-09T19:58:01.112Z,53.99
2023-02-09T20:00:28.394Z,54.96
2023-02-09T20:02:55.911Z,54.93
2023-02-09T20:05:23.224Z,57.08
2023-02-09T20:07:53.180Z,57.24
2023-02-09T20:10:21.631Z,56.35
2023-02-09T20:12:48.924Z,56.36
2023-02-09T20:15:16.525Z,57.64
2023-02-09T20:17:44.365Z,58.26
2023-02-09T20:20:12.298Z,58.65
2023-02-09T20:22:39.681Z,58.61
2023-02-09T20:25:07.387Z,57.94
2023-02-09T20:27:35.052Z,57.81
2023-02-09T20:30:05.383Z,57.65
2023-02-09T20:32:33.756Z,58.06
2023-02-09T20:35:01.025Z,57.63
2023-02-09T20:37:28.418Z,57.58
2023-02-09T20:39:55.962Z,57.17
2023-02-09T20:42:42.173Z,58.38
2023-02-09T20:45:32.759Z,58.09
2023-02-09T20:48:00.139Z,58.97
2023-02-09T20:50:27.602Z,58.00
2023-02-09T20:52:54.895Z,58.74
2023-02-09T20:55:22.890Z,58.75
2023-02-09T20:57:50.550Z,58.28
2023-02-09T21:00:17.974Z,57.83
2023-02-09T21:02:45.367Z,58.32
2023-02-09T21:05:12.754Z,58.96
2023-02-09T21:07:40.076Z,58.45
2023-02-09T21:10:07.698Z,59.15
2023-02-09T21:12:35.062Z,59.21
2023-02-09T21:15:02.376Z,59.67
2023-02-09T21:17:29.813Z,59.45
2023-02-09T21:19:57.274Z,59.78
2023-02-09T21:22:24.670Z,59.83
2023-02-09T21:24:52.049Z,59.73
2023-02-09T21:27:19.486Z,59.57
2023-02-09T21:29:46.802Z,59.74
2023-02-09T21:32:14.077Z,59.99
2023-02-09T21:34:42.664Z,59.62
2023-02-09T21:37:14.046Z,59.20
2023-02-09T21:39:41.769Z,59.02
2023-02-09T21:42:28.826Z,59.90
2023-02-09T21:44:56.766Z,60.80
2023-02-09T21:47:38.119Z,61.40
2023-02-09T21:50:07.833Z,61.81
2023-02-09T21:52:35.631Z,61.95
2023-02-09T21:55:04.158Z,61.82
2023-02-09T21:57:31.699Z,60.59
2023-02-09T22:00:00.041Z,60.62
2023-02-09T22:02:27.961Z,60.98
2023-02-09T22:04:55.527Z,60.99
2023-02-09T22:07:23.396Z,60.76
2023-02-09T22:09:50.790Z,61.05
2023-02-09T22:12:18.173Z,61.10
2023-02-09T22:14:45.443Z,61.16
2023-02-09T22:17:12.788Z,61.29
2023-02-09T22:19:41.490Z,61.48
2023-02-09T22:22:10.109Z,61.87
2023-02-09T22:24:37.998Z,61.72
2023-02-09T22:27:05.304Z,62.11
2023-02-09T22:29:35.414Z,62.32
2023-02-09T22:32:03.263Z,61.71
2023-02-09T22:34:31.331Z,62.39
2023-02-09T22:36:58.608Z,62.31
2023-02-09T22:39:25.908Z,62.07
2023-02-09T22:41:57.979Z,62.38
2023-02-09T22:44:27.905Z,63.29
2023-02-09T22:46:55.232Z,63.81
2023-02-09T22:49:26.770Z,63.91
2023-02-09T22:51:54.133Z,63.60
2023-02-09T22:54:21.467Z,62.85
2023-02-09T22:56:49.026Z,62.55
2023-02-09T22:59:16.291Z,63.32
2023-02-09T23:01:44.265Z,62.96
2023-02-09T23:04:11.697Z,62.69
2023-02-09T23:06:39.178Z,62.91
2023-02-09T23:09:07.520Z,63.75
2023-02-09T23:11:35.308Z,64.19
2023-02-09T23:14:11.098Z,64.10
2023-02-09T23:16:40.176Z,64.44
2023-02-09T23:19:09.921Z,65.09
2023-02-09T23:21:39.329Z,64.66
2023-02-09T23:24:07.086Z,65.31
2023-02-09T23:26:34.922Z,65.54
2023-02-09T23:29:04.524Z,65.22
2023-02-09T23:31:32.298Z,64.04
2023-02-09T23:33:59.692Z,63.79
2023-02-09T23:36:29.560Z,63.65
2023-02-09T23:39:05.769Z,63.81
2023-02-09T23:41:33.937Z,64.56
2023-02-09T23:44:01.765Z,65.36
2023-02-09T23:46:29.418Z,65.35
2023-02-09T23:48:57.427Z,64.87
2023-02-09T23:51:28.429Z,64.87
2023-02-09T23:53:57.453Z,64.69
2023-02-09T23:56:25.476Z,64.97
2023-02-09T23:58:53.102Z,64.90
